sensor_id;sensor_type;location;lat;lon;timestamp;pressure;altitude;pressure_sealevel;temperature;humidity
75063;BME280;63981;51.052;13.754;2023-07-29T00:02:27;99769.41;;;20.04;75.51
75063;BME280;63981;51.052;13.754;2023-07-29T00:04:56;99773.47;;;20.00;75.81
75063;BME280;63981;51.052;13.754;2023-07-29T00:07:23;99773.81;;;19.97;75.93
75063;BME280;63981;51.052;13.754;2023-07-29T00:09:49;99783.03;;;19.95;76.11
75063;BME280;63981;51.052;13.754;2023-07-29T00:12:15;99769.97;;;19.92;75.95
75063;BME280;63981;51.052;13.754;2023-07-29T00:14:42;99769.66;;;19.87;76.55
75063;BME280;63981;51.052;13.754;2023-07-29T00:17:08;99766.50;;;19.83;76.24
75063;BME280;63981;51.052;13.754;2023-07-29T00:19:36;99766.16;;;19.78;76.55
75063;BME280;63981;51.052;13.754;2023-07-29T00:22:04;99766.88;;;19.72;76.65
75063;BME280;63981;51.052;13.754;2023-07-29T00:24:30;99769.91;;;19.69;77.06
75063;BME280;63981;51.052;13.754;2023-07-29T00:26:56;99778.25;;;19.66;77.29
75063;BME280;63981;51.052;13.754;2023-07-29T00:29:22;99762.19;;;19.66;77.16
75063;BME280;63981;51.052;13.754;2023-07-29T00:31:51;99765.22;;;19.63;77.27
75063;BME280;63981;51.052;13.754;2023-07-29T00:34:17;99763.38;;;19.63;77.37
75063;BME280;63981;51.052;13.754;2023-07-29T00:36:47;99770.56;;;19.63;77.65
75063;BME280;63981;51.052;13.754;2023-07-29T00:39:13;99760.03;;;19.61;77.38
75063;BME280;63981;51.052;13.754;2023-07-29T00:41:39;99762.22;;;19.58;77.66
75063;BME280;63981;51.052;13.754;2023-07-29T00:44:06;99757.06;;;19.56;77.45
75063;BME280;63981;51.052;13.754;2023-07-29T00:46:33;99759.91;;;19.55;77.26
75063;BME280;63981;51.052;13.754;2023-07-29T00:49:00;99763.41;;;19.55;77.62
75063;BME280;63981;51.052;13.754;2023-07-29T00:51:27;99759.03;;;19.54;78.05
75063;BME280;63981;51.052;13.754;2023-07-29T00:53:54;99762.88;;;19.52;78.20
75063;BME280;63981;51.052;13.754;2023-07-29T00:56:21;99756.69;;;19.51;78.04
75063;BME280;63981;51.052;13.754;2023-07-29T00:58:48;99756.50;;;19.53;78.16
75063;BME280;63981;51.052;13.754;2023-07-29T01:01:14;99751.03;;;19.54;77.96
75063;BME280;63981;51.052;13.754;2023-07-29T01:03:40;99761.72;;;19.54;78.34
75063;BME280;63981;51.052;13.754;2023-07-29T01:06:32;99756.38;;;19.54;78.38
75063;BME280;63981;51.052;13.754;2023-07-29T01:09:24;99756.03;;;19.49;78.17
75063;BME280;63981;51.052;13.754;2023-07-29T01:12:16;99762.56;;;19.47;78.64
75063;BME280;63981;51.052;13.754;2023-07-29T01:15:11;99753.34;;;19.49;78.45
75063;BME280;63981;51.052;13.754;2023-07-29T01:18:02;99748.34;;;19.46;78.49
75063;BME280;63981;51.052;13.754;2023-07-29T01:20:51;99756.53;;;19.44;78.52
75063;BME280;63981;51.052;13.754;2023-07-29T01:23:39;99752.56;;;19.40;78.35
75063;BME280;63981;51.052;13.754;2023-07-29T01:26:24;99743.00;;;19.38;78.28
75063;BME280;63981;51.052;13.754;2023-07-29T01:29:09;99742.00;;;19.39;78.13
75063;BME280;63981;51.052;13.754;2023-07-29T01:31:56;99734.16;;;19.37;78.54
75063;BME280;63981;51.052;13.754;2023-07-29T01:34:47;99736.16;;;19.35;78.09
75063;BME280;63981;51.052;13.754;2023-07-29T01:37:34;99733.16;;;19.38;77.89
75063;BME280;63981;51.052;13.754;2023-07-29T01:40:22;99734.81;;;19.39;78.08
75063;BME280;63981;51.052;13.754;2023-07-29T01:43:09;99721.66;;;19.30;78.27
75063;BME280;63981;51.052;13.754;2023-07-29T01:45:55;99733.31;;;19.37;78.33
75063;BME280;63981;51.052;13.754;2023-07-29T01:48:41;99728.16;;;19.35;78.27
75063;BME280;63981;51.052;13.754;2023-07-29T01:51:26;99719.66;;;19.24;78.17
75063;BME280;63981;51.052;13.754;2023-07-29T01:54:11;99730.50;;;19.30;78.09
75063;BME280;63981;51.052;13.754;2023-07-29T01:56:58;99732.53;;;19.28;78.19
75063;BME280;63981;51.052;13.754;2023-07-29T01:59:43;99733.34;;;19.29;78.08
75063;BME280;63981;51.052;13.754;2023-07-29T02:02:28;99729.34;;;19.25;78.19
75063;BME280;63981;51.052;13.754;2023-07-29T02:05:13;99734.84;;;19.23;78.48
75063;BME280;63981;51.052;13.754;2023-07-29T02:07:58;99733.69;;;19.18;78.39
75063;BME280;63981;51.052;13.754;2023-07-29T02:10:43;99737.56;;;19.15;78.80
75063;BME280;63981;51.052;13.754;2023-07-29T02:13:31;99734.88;;;19.15;78.47
75063;BME280;63981;51.052;13.754;2023-07-29T02:16:16;99742.91;;;19.15;78.73
75063;BME280;63981;51.052;13.754;2023-07-29T02:19:01;99743.88;;;19.14;78.58
75063;BME280;63981;51.052;13.754;2023-07-29T02:21:46;99735.84;;;19.14;78.73
75063;BME280;63981;51.052;13.754;2023-07-29T02:24:31;99722.53;;;19.06;78.53
75063;BME280;63981;51.052;13.754;2023-07-29T02:27:16;99738.53;;;19.14;78.61
75063;BME280;63981;51.052;13.754;2023-07-29T02:30:02;99730.84;;;19.11;78.76
75063;BME280;63981;51.052;13.754;2023-07-29T02:32:47;99741.53;;;19.11;78.61
75063;BME280;63981;51.052;13.754;2023-07-29T02:35:32;99741.53;;;19.11;78.76
75063;BME280;63981;51.052;13.754;2023-07-29T02:38:02;99728.69;;;19.06;78.70
75063;BME280;63981;51.052;13.754;2023-07-29T02:40:29;99739.88;;;19.10;79.07
75063;BME280;63981;51.052;13.754;2023-07-29T02:42:55;99750.56;;;19.10;78.52
75063;BME280;63981;51.052;13.754;2023-07-29T02:45:23;99741.56;;;19.03;79.07
75063;BME280;63981;51.052;13.754;2023-07-29T02:47:49;99742.56;;;19.02;78.97
75063;BME280;63981;51.052;13.754;2023-07-29T02:50:16;99759.75;;;19.07;79.09
75063;BME280;63981;51.052;13.754;2023-07-29T02:52:42;99761.75;;;19.05;79.33
75063;BME280;63981;51.052;13.754;2023-07-29T02:55:08;99758.44;;;19.03;79.27
75063;BME280;63981;51.052;13.754;2023-07-29T02:57:35;99762.94;;;19.03;79.13
75063;BME280;63981;51.052;13.754;2023-07-29T03:00:02;99762.94;;;19.03;79.36
75063;BME280;63981;51.052;13.754;2023-07-29T03:02:30;99773.63;;;19.03;79.33
75063;BME280;63981;51.052;13.754;2023-07-29T03:04:56;99771.13;;;19.01;79.90
75063;BME280;63981;51.052;13.754;2023-07-29T03:07:22;99771.97;;;19.02;79.90
75063;BME280;63981;51.052;13.754;2023-07-29T03:09:49;99770.13;;;19.02;80.16
75063;BME280;63981;51.052;13.754;2023-07-29T03:12:15;99770.25;;;19.01;80.22
75063;BME280;63981;51.052;13.754;2023-07-29T03:14:41;99771.78;;;19.03;80.22
75063;BME280;63981;51.052;13.754;2023-07-29T03:17:08;99765.78;;;19.01;80.23
75063;BME280;63981;51.052;13.754;2023-07-29T03:19:35;99768.94;;;19.05;80.37
75063;BME280;63981;51.052;13.754;2023-07-29T03:22:02;99773.44;;;19.04;80.51
75063;BME280;63981;51.052;13.754;2023-07-29T03:24:28;99772.94;;;19.09;80.44
75063;BME280;63981;51.052;13.754;2023-07-29T03:26:55;99774.25;;;19.13;80.36
75063;BME280;63981;51.052;13.754;2023-07-29T03:29:21;99775.78;;;19.15;80.14
75063;BME280;63981;51.052;13.754;2023-07-29T03:31:47;99775.09;;;19.13;80.27
75063;BME280;63981;51.052;13.754;2023-07-29T03:34:14;99767.78;;;19.15;80.39
75063;BME280;63981;51.052;13.754;2023-07-29T03:36:45;99759.75;;;19.15;79.98
75063;BME280;63981;51.052;13.754;2023-07-29T03:39:13;99761.44;;;19.17;79.99
75063;BME280;63981;51.052;13.754;2023-07-29T03:41:40;99758.59;;;19.18;79.73
75063;BME280;63981;51.052;13.754;2023-07-29T03:44:06;99762.91;;;19.19;79.89
75063;BME280;63981;51.052;13.754;2023-07-29T03:46:32;99766.09;;;19.23;79.91
75063;BME280;63981;51.052;13.754;2023-07-29T03:48:59;99750.72;;;19.25;79.88
75063;BME280;63981;51.052;13.754;2023-07-29T03:51:25;99753.91;;;19.28;79.82
75063;BME280;63981;51.052;13.754;2023-07-29T03:53:53;99749.41;;;19.29;79.28
75063;BME280;63981;51.052;13.754;2023-07-29T03:56:19;99749.56;;;19.27;79.16
75063;BME280;63981;51.052;13.754;2023-07-29T03:58:46;99750.72;;;19.33;79.11
75063;BME280;63981;51.052;13.754;2023-07-29T04:01:14;99756.72;;;19.35;78.75
75063;BME280;63981;51.052;13.754;2023-07-29T04:03:40;99754.53;;;19.38;78.84
75063;BME280;63981;51.052;13.754;2023-07-29T04:06:06;99753.38;;;19.41;78.94
75063;BME280;63981;51.052;13.754;2023-07-29T04:08:33;99733.16;;;19.38;79.25
75063;BME280;63981;51.052;13.754;2023-07-29T04:11:01;99748.50;;;19.53;79.13
75063;BME280;63981;51.052;13.754;2023-07-29T04:13:27;99753.56;;;19.56;78.79
75063;BME280;63981;51.052;13.754;2023-07-29T04:15:54;99748.69;;;19.59;78.36
75063;BME280;63981;51.052;13.754;2023-07-29T04:18:20;99752.69;;;19.63;78.91
75063;BME280;63981;51.052;13.754;2023-07-29T04:20:48;99756.53;;;19.69;79.05
75063;BME280;63981;51.052;13.754;2023-07-29T04:23:14;99760.69;;;19.71;78.52
75063;BME280;63981;51.052;13.754;2023-07-29T04:25:40;99755.66;;;19.77;78.64
75063;BME280;63981;51.052;13.754;2023-07-29T04:28:08;99757.66;;;19.83;78.07
75063;BME280;63981;51.052;13.754;2023-07-29T04:30:34;99759.81;;;19.87;77.54
75063;BME280;63981;51.052;13.754;2023-07-29T04:33:01;99763.97;;;19.90;77.04
75063;BME280;63981;51.052;13.754;2023-07-29T04:35:27;99757.09;;;19.95;76.57
75063;BME280;63981;51.052;13.754;2023-07-29T04:37:53;99744.22;;;19.91;76.44
75063;BME280;63981;51.052;13.754;2023-07-29T04:40:20;99751.88;;;20.02;76.36
75063;BME280;63981;51.052;13.754;2023-07-29T04:42:46;99755.91;;;20.06;75.80
75063;BME280;63981;51.052;13.754;2023-07-29T04:45:14;99743.66;;;20.03;75.54
75063;BME280;63981;51.052;13.754;2023-07-29T04:47:40;99748.34;;;20.10;75.56
75063;BME280;63981;51.052;13.754;2023-07-29T04:50:07;99758.00;;;20.19;75.16
75063;BME280;63981;51.052;13.754;2023-07-29T04:52:34;99752.31;;;20.22;74.29
75063;BME280;63981;51.052;13.754;2023-07-29T04:55:00;99751.59;;;20.28;74.64
75063;BME280;63981;51.052;13.754;2023-07-29T04:57:27;99750.06;;;20.33;74.43
75063;BME280;63981;51.052;13.754;2023-07-29T04:59:55;99738.53;;;20.33;73.72
75063;BME280;63981;51.052;13.754;2023-07-29T05:02:22;99745.50;;;20.42;73.14
75063;BME280;63981;51.052;13.754;2023-07-29T05:04:49;99756.72;;;20.46;72.91
75063;BME280;63981;51.052;13.754;2023-07-29T05:07:15;99746.50;;;20.49;73.38
75063;BME280;63981;51.052;13.754;2023-07-29T05:09:41;99747.97;;;20.52;72.95
75063;BME280;63981;51.052;13.754;2023-07-29T05:12:08;99749.28;;;20.56;72.75
75063;BME280;63981;51.052;13.754;2023-07-29T05:14:34;99749.13;;;20.57;72.53
75063;BME280;63981;51.052;13.754;2023-07-29T05:17:00;99753.09;;;20.61;72.32
75063;BME280;63981;51.052;13.754;2023-07-29T05:19:28;99737.22;;;20.60;72.31
75063;BME280;63981;51.052;13.754;2023-07-29T05:21:55;99755.38;;;20.73;72.28
75063;BME280;63981;51.052;13.754;2023-07-29T05:24:21;99745.59;;;20.80;71.53
75063;BME280;63981;51.052;13.754;2023-07-29T05:26:48;99743.22;;;20.85;71.24
75063;BME280;63981;51.052;13.754;2023-07-29T05:29:15;99740.00;;;20.89;71.33
75063;BME280;63981;51.052;13.754;2023-07-29T05:31:41;99739.63;;;20.92;70.50
75063;BME280;63981;51.052;13.754;2023-07-29T05:34:08;99737.41;;;20.96;70.72
75063;BME280;63981;51.052;13.754;2023-07-29T05:36:37;99729.88;;;21.00;70.23
75063;BME280;63981;51.052;13.754;2023-07-29T05:39:03;99733.66;;;21.05;70.08
75063;BME280;63981;51.052;13.754;2023-07-29T05:41:30;99723.41;;;21.09;70.09
75063;BME280;63981;51.052;13.754;2023-07-29T05:43:56;99727.03;;;21.16;70.16
75063;BME280;63981;51.052;13.754;2023-07-29T05:46:22;99731.50;;;21.24;70.25
75063;BME280;63981;51.052;13.754;2023-07-29T05:48:49;99721.53;;;21.32;69.93
75063;BME280;63981;51.052;13.754;2023-07-29T05:51:15;99723.97;;;21.42;69.52
75063;BME280;63981;51.052;13.754;2023-07-29T05:53:43;99721.22;;;21.50;69.32
75063;BME280;63981;51.052;13.754;2023-07-29T05:56:10;99720.09;;;21.59;69.19
75063;BME280;63981;51.052;13.754;2023-07-29T05:58:36;99700.03;;;21.55;68.39
75063;BME280;63981;51.052;13.754;2023-07-29T06:01:02;99708.44;;;21.67;68.01
75063;BME280;63981;51.052;13.754;2023-07-29T06:03:29;99705.56;;;21.68;67.77
75063;BME280;63981;51.052;13.754;2023-07-29T06:05:55;99705.19;;;21.71;68.13
75063;BME280;63981;51.052;13.754;2023-07-29T06:08:22;99704.47;;;21.77;68.31
75063;BME280;63981;51.052;13.754;2023-07-29T06:10:50;99698.06;;;21.78;67.86
75063;BME280;63981;51.052;13.754;2023-07-29T06:13:16;99690.09;;;21.85;67.47
75063;BME280;63981;51.052;13.754;2023-07-29T06:15:43;99702.66;;;21.99;67.41
75063;BME280;63981;51.052;13.754;2023-07-29T06:18:09;99693.22;;;22.03;66.68
75063;BME280;63981;51.052;13.754;2023-07-29T06:20:36;99693.50;;;22.08;66.13
75063;BME280;63981;51.052;13.754;2023-07-29T06:23:03;99693.22;;;22.18;65.75
75063;BME280;63981;51.052;13.754;2023-07-29T06:25:30;99700.97;;;22.28;65.79
75063;BME280;63981;51.052;13.754;2023-07-29T06:27:57;99699.25;;;22.42;64.52
75063;BME280;63981;51.052;13.754;2023-07-29T06:30:24;99697.22;;;22.44;63.69
75063;BME280;63981;51.052;13.754;2023-07-29T06:32:50;99689.34;;;22.42;63.73
75063;BME280;63981;51.052;13.754;2023-07-29T06:35:17;99694.97;;;22.47;63.63
75063;BME280;63981;51.052;13.754;2023-07-29T06:37:43;99697.91;;;22.52;63.24
75063;BME280;63981;51.052;13.754;2023-07-29T06:40:10;99695.88;;;22.54;62.90
75063;BME280;63981;51.052;13.754;2023-07-29T06:42:36;99697.19;;;22.65;62.78
75063;BME280;63981;51.052;13.754;2023-07-29T06:45:09;99707.19;;;22.71;62.99
75063;BME280;63981;51.052;13.754;2023-07-29T06:47:40;99701.81;;;22.71;63.11
75063;BME280;63981;51.052;13.754;2023-07-29T06:50:06;99706.25;;;22.79;61.94
75063;BME280;63981;51.052;13.754;2023-07-29T06:52:33;99712.63;;;22.78;62.14
75063;BME280;63981;51.052;13.754;2023-07-29T06:54:59;99707.91;;;22.80;62.42
75063;BME280;63981;51.052;13.754;2023-07-29T06:57:26;99710.59;;;22.80;62.31
75063;BME280;63981;51.052;13.754;2023-07-29T06:59:53;99704.25;;;22.87;62.14
75063;BME280;63981;51.052;13.754;2023-07-29T07:02:21;99701.88;;;22.99;62.66
75063;BME280;63981;51.052;13.754;2023-07-29T07:04:47;99708.78;;;23.08;61.56
75063;BME280;63981;51.052;13.754;2023-07-29T07:07:14;99704.06;;;23.17;61.45
75063;BME280;63981;51.052;13.754;2023-07-29T07:09:41;99708.28;;;23.26;59.78
75063;BME280;63981;51.052;13.754;2023-07-29T07:12:08;99701.47;;;23.30;60.73
75063;BME280;63981;51.052;13.754;2023-07-29T07:14:34;99701.13;;;23.33;59.58
75063;BME280;63981;51.052;13.754;2023-07-29T07:17:00;99707.16;;;23.42;60.05
75063;BME280;63981;51.052;13.754;2023-07-29T07:19:28;99704.31;;;23.50;59.64
75063;BME280;63981;51.052;13.754;2023-07-29T07:21:54;99701.09;;;23.61;59.38
75063;BME280;63981;51.052;13.754;2023-07-29T07:24:21;99695.75;;;23.68;57.98
75063;BME280;63981;51.052;13.754;2023-07-29T07:26:47;99686.88;;;23.74;58.22
75063;BME280;63981;51.052;13.754;2023-07-29T07:29:13;99682.75;;;23.78;57.12
75063;BME280;63981;51.052;13.754;2023-07-29T07:31:40;99669.97;;;23.87;56.13
75063;BME280;63981;51.052;13.754;2023-07-29T07:34:06;99672.28;;;23.96;56.46
75063;BME280;63981;51.052;13.754;2023-07-29T07:36:34;99667.78;;;24.10;56.20
75063;BME280;63981;51.052;13.754;2023-07-29T07:39:00;99661.59;;;24.29;54.25
75063;BME280;63981;51.052;13.754;2023-07-29T07:41:26;99666.25;;;24.49;54.33
75063;BME280;63981;51.052;13.754;2023-07-29T07:43:53;99663.94;;;24.59;54.23
75063;BME280;63981;51.052;13.754;2023-07-29T07:46:19;99657.50;;;24.60;53.28
75063;BME280;63981;51.052;13.754;2023-07-29T07:48:45;99659.81;;;24.56;53.12
75063;BME280;63981;51.052;13.754;2023-07-29T07:51:12;99658.56;;;24.52;52.39
75063;BME280;63981;51.052;13.754;2023-07-29T07:53:40;99656.88;;;24.45;51.73
75063;BME280;63981;51.052;13.754;2023-07-29T07:56:06;99642.78;;;24.42;52.16
75063;BME280;63981;51.052;13.754;2023-07-29T07:58:32;99645.69;;;24.41;52.60
75063;BME280;63981;51.052;13.754;2023-07-29T08:01:02;99648.78;;;24.45;52.27
75063;BME280;63981;51.052;13.754;2023-07-29T08:03:29;99644.88;;;24.40;52.64
75063;BME280;63981;51.052;13.754;2023-07-29T08:05:56;99639.06;;;24.44;53.09
75063;BME280;63981;51.052;13.754;2023-07-29T08:08:22;99632.41;;;24.46;52.71
75063;BME280;63981;51.052;13.754;2023-07-29T08:10:50;99633.91;;;24.49;52.02
75063;BME280;63981;51.052;13.754;2023-07-29T08:13:16;99630.38;;;24.48;52.35
75063;BME280;63981;51.052;13.754;2023-07-29T08:15:46;99624.53;;;24.45;52.22
75063;BME280;63981;51.052;13.754;2023-07-29T08:18:12;99634.06;;;24.47;51.76
75063;BME280;63981;51.052;13.754;2023-07-29T08:20:38;99625.59;;;24.50;52.56
75063;BME280;63981;51.052;13.754;2023-07-29T08:23:05;99632.84;;;24.56;52.42
75063;BME280;63981;51.052;13.754;2023-07-29T08:25:31;99634.94;;;24.67;52.26
75063;BME280;63981;51.052;13.754;2023-07-29T08:27:59;99637.22;;;24.77;52.00
75063;BME280;63981;51.052;13.754;2023-07-29T08:30:25;99630.56;;;24.80;51.49
75063;BME280;63981;51.052;13.754;2023-07-29T08:32:51;99631.22;;;24.88;51.29
75063;BME280;63981;51.052;13.754;2023-07-29T08:35:18;99620.59;;;24.93;50.68
75063;BME280;63981;51.052;13.754;2023-07-29T08:37:44;99632.84;;;24.96;49.88
75063;BME280;63981;51.052;13.754;2023-07-29T08:40:11;99629.56;;;25.01;50.18
75063;BME280;63981;51.052;13.754;2023-07-29T08:42:40;99623.72;;;25.17;50.73
75063;BME280;63981;51.052;13.754;2023-07-29T08:45:10;99618.03;;;25.45;50.04
75063;BME280;63981;51.052;13.754;2023-07-29T08:47:37;99622.09;;;25.74;48.36
75063;BME280;63981;51.052;13.754;2023-07-29T08:50:05;99620.94;;;26.01;50.58
75063;BME280;63981;51.052;13.754;2023-07-29T08:52:32;99621.44;;;26.16;47.78
75063;BME280;63981;51.052;13.754;2023-07-29T08:55:00;99622.25;;;26.24;48.00
75063;BME280;63981;51.052;13.754;2023-07-29T08:57:27;99630.19;;;26.19;46.09
75063;BME280;63981;51.052;13.754;2023-07-29T08:59:55;99633.53;;;26.14;46.53
75063;BME280;63981;51.052;13.754;2023-07-29T09:02:23;99633.09;;;26.17;47.48
75063;BME280;63981;51.052;13.754;2023-07-29T09:04:50;99622.09;;;26.19;46.51
75063;BME280;63981;51.052;13.754;2023-07-29T09:07:17;99619.16;;;26.20;47.17
75063;BME280;63981;51.052;13.754;2023-07-29T09:09:43;99626.16;;;26.28;46.53
75063;BME280;63981;51.052;13.754;2023-07-29T09:12:09;99625.94;;;26.29;46.55
75063;BME280;63981;51.052;13.754;2023-07-29T09:14:37;99619.09;;;26.27;47.61
75063;BME280;63981;51.052;13.754;2023-07-29T09:17:06;99628.31;;;26.19;47.98
75063;BME280;63981;51.052;13.754;2023-07-29T09:19:35;99627.50;;;26.19;49.04
75063;BME280;63981;51.052;13.754;2023-07-29T09:22:01;99632.91;;;26.19;48.82
75063;BME280;63981;51.052;13.754;2023-07-29T09:24:28;99628.72;;;26.16;48.04
75063;BME280;63981;51.052;13.754;2023-07-29T09:26:58;99624.66;;;26.07;47.78
75063;BME280;63981;51.052;13.754;2023-07-29T09:29:28;99612.81;;;26.01;47.95
75063;BME280;63981;51.052;13.754;2023-07-29T09:34:41;99619.94;;;26.27;49.22
75063;BME280;63981;51.052;13.754;2023-07-29T09:37:07;99610.84;;;26.53;47.74
75063;BME280;63981;51.052;13.754;2023-07-29T09:39:33;99608.13;;;26.78;47.67
75063;BME280;63981;51.052;13.754;2023-07-29T09:41:59;99612.91;;;26.83;46.20
75063;BME280;63981;51.052;13.754;2023-07-29T09:44:26;99607.88;;;26.86;47.35
75063;BME280;63981;51.052;13.754;2023-07-29T09:46:52;99607.97;;;26.98;47.73
75063;BME280;63981;51.052;13.754;2023-07-29T09:49:19;99611.31;;;26.93;47.38
75063;BME280;63981;51.052;13.754;2023-07-29T09:51:49;99605.59;;;26.83;46.97
75063;BME280;63981;51.052;13.754;2023-07-29T09:54:15;99608.59;;;26.75;46.18
75063;BME280;63981;51.052;13.754;2023-07-29T09:56:43;99611.78;;;26.65;46.49
75063;BME280;63981;51.052;13.754;2023-07-29T09:59:10;99600.63;;;26.55;47.15
75063;BME280;63981;51.052;13.754;2023-07-29T10:01:38;99604.81;;;26.51;47.13
75063;BME280;63981;51.052;13.754;2023-07-29T10:04:05;99606.38;;;26.34;46.58
75063;BME280;63981;51.052;13.754;2023-07-29T10:06:32;99604.81;;;26.20;47.86
75063;BME280;63981;51.052;13.754;2023-07-29T10:09:01;99626.53;;;26.00;48.31
75063;BME280;63981;51.052;13.754;2023-07-29T10:11:28;99637.06;;;25.63;51.18
75063;BME280;63981;51.052;13.754;2023-07-29T10:13:55;99637.81;;;24.39;68.98
75063;BME280;63981;51.052;13.754;2023-07-29T10:16:23;99631.66;;;23.09;74.13
75063;BME280;63981;51.052;13.754;2023-07-29T10:18:52;99629.78;;;22.38;77.20
75063;BME280;63981;51.052;13.754;2023-07-29T10:21:21;99631.28;;;21.69;79.08
75063;BME280;63981;51.052;13.754;2023-07-29T10:23:49;99620.91;;;21.21;81.87
75063;BME280;63981;51.052;13.754;2023-07-29T10:26:21;99624.72;;;20.98;82.96
75063;BME280;63981;51.052;13.754;2023-07-29T10:28:51;99618.22;;;20.92;84.42
75063;BME280;63981;51.052;13.754;2023-07-29T10:31:19;99618.03;;;20.94;83.88
75063;BME280;63981;51.052;13.754;2023-07-29T10:33:49;99625.44;;;21.06;85.14
75063;BME280;63981;51.052;13.754;2023-07-29T10:36:16;99619.63;;;21.17;84.16
75063;BME280;63981;51.052;13.754;2023-07-29T10:38:43;99610.25;;;21.36;85.79
75063;BME280;63981;51.052;13.754;2023-07-29T10:41:09;99610.94;;;21.60;84.43
75063;BME280;63981;51.052;13.754;2023-07-29T10:43:37;99614.31;;;21.83;84.81
75063;BME280;63981;51.052;13.754;2023-07-29T10:46:16;99616.69;;;22.07;86.15
75063;BME280;63981;51.052;13.754;2023-07-29T10:48:52;99612.22;;;22.15;82.89
75063;BME280;63981;51.052;13.754;2023-07-29T10:51:26;99610.44;;;22.22;81.61
75063;BME280;63981;51.052;13.754;2023-07-29T10:53:56;99607.63;;;22.30;82.48
75063;BME280;63981;51.052;13.754;2023-07-29T10:56:30;99608.03;;;22.27;80.21
75063;BME280;63981;51.052;13.754;2023-07-29T10:59:01;99602.81;;;22.25;79.28
75063;BME280;63981;51.052;13.754;2023-07-29T11:01:29;99600.13;;;22.25;79.92
75063;BME280;63981;51.052;13.754;2023-07-29T11:04:26;99593.81;;;22.33;81.63
75063;BME280;63981;51.052;13.754;2023-07-29T11:07:18;99595.91;;;22.37;79.79
75063;BME280;63981;51.052;13.754;2023-07-29T11:10:06;99591.88;;;22.48;78.00
75063;BME280;63981;51.052;13.754;2023-07-29T11:12:41;99586.03;;;22.66;79.67
75063;BME280;63981;51.052;13.754;2023-07-29T11:15:15;99584.28;;;22.80;75.92
75063;BME280;63981;51.052;13.754;2023-07-29T11:17:43;99584.81;;;22.97;74.39
75063;BME280;63981;51.052;13.754;2023-07-29T11:20:11;99576.69;;;23.18;74.38
75063;BME280;63981;51.052;13.754;2023-07-29T11:22:38;99572.84;;;23.34;71.56
75063;BME280;63981;51.052;13.754;2023-07-29T11:25:07;99579.53;;;23.51;72.33
75063;BME280;63981;51.052;13.754;2023-07-29T11:27:34;99581.19;;;23.52;69.07
75063;BME280;63981;51.052;13.754;2023-07-29T11:30:02;99589.88;;;23.47;67.54
75063;BME280;63981;51.052;13.754;2023-07-29T11:32:32;99592.13;;;23.44;65.08
75063;BME280;63981;51.052;13.754;2023-07-29T11:35:01;99598.72;;;23.41;67.17
75063;BME280;63981;51.052;13.754;2023-07-29T11:37:27;99600.78;;;23.39;68.98
75063;BME280;63981;51.052;13.754;2023-07-29T11:39:53;99586.06;;;23.35;69.99
75063;BME280;63981;51.052;13.754;2023-07-29T11:42:20;99581.75;;;23.41;71.09
75063;BME280;63981;51.052;13.754;2023-07-29T11:44:47;99588.41;;;23.51;74.47
75063;BME280;63981;51.052;13.754;2023-07-29T11:47:13;99584.13;;;23.57;73.50
75063;BME280;63981;51.052;13.754;2023-07-29T11:49:41;99582.28;;;23.64;72.27
75063;BME280;63981;51.052;13.754;2023-07-29T11:52:09;99572.97;;;23.60;68.69
75063;BME280;63981;51.052;13.754;2023-07-29T11:54:36;99581.59;;;23.55;69.25
75063;BME280;63981;51.052;13.754;2023-07-29T11:57:04;99575.66;;;23.60;71.95
75063;BME280;63981;51.052;13.754;2023-07-29T11:59:33;99576.50;;;23.67;72.96
75063;BME280;63981;51.052;13.754;2023-07-29T12:02:00;99581.91;;;23.74;73.29
75063;BME280;63981;51.052;13.754;2023-07-29T12:04:27;99576.75;;;23.79;71.64
75063;BME280;63981;51.052;13.754;2023-07-29T12:06:55;99574.88;;;23.79;69.24
75063;BME280;63981;51.052;13.754;2023-07-29T12:09:22;99569.53;;;23.86;70.34
75063;BME280;63981;51.052;13.754;2023-07-29T12:11:48;99572.22;;;23.93;69.22
75063;BME280;63981;51.052;13.754;2023-07-29T12:14:16;99571.22;;;24.00;67.88
75063;BME280;63981;51.052;13.754;2023-07-29T12:16:42;99563.56;;;24.10;68.28
75063;BME280;63981;51.052;13.754;2023-07-29T12:19:12;99571.22;;;24.20;69.10
75063;BME280;63981;51.052;13.754;2023-07-29T12:21:38;99561.91;;;24.29;66.48
75063;BME280;63981;51.052;13.754;2023-07-29T12:24:06;99562.97;;;24.35;61.99
75063;BME280;63981;51.052;13.754;2023-07-29T12:26:32;99562.59;;;24.38;62.36
75063;BME280;63981;51.052;13.754;2023-07-29T12:28:59;99565.47;;;24.43;63.81
75063;BME280;63981;51.052;13.754;2023-07-29T12:31:31;99554.09;;;24.54;63.05
75063;BME280;63981;51.052;13.754;2023-07-29T12:33:58;99541.22;;;24.69;63.71
75063;BME280;63981;51.052;13.754;2023-07-29T12:36:27;99524.78;;;24.84;60.02
75063;BME280;63981;51.052;13.754;2023-07-29T12:38:54;99534.09;;;24.95;59.56
75063;BME280;63981;51.052;13.754;2023-07-29T12:41:26;99532.25;;;25.02;56.14
75063;BME280;63981;51.052;13.754;2023-07-29T12:43:52;99530.41;;;25.03;55.05
75063;BME280;63981;51.052;13.754;2023-07-29T12:46:18;99531.84;;;25.05;54.33
75063;BME280;63981;51.052;13.754;2023-07-29T12:48:45;99531.34;;;25.21;53.68
75063;BME280;63981;51.052;13.754;2023-07-29T12:51:11;99529.97;;;25.57;54.76
75063;BME280;63981;51.052;13.754;2023-07-29T12:53:37;99529.44;;;25.80;52.98
75063;BME280;63981;51.052;13.754;2023-07-29T12:56:05;99522.31;;;25.92;52.48
75063;BME280;63981;51.052;13.754;2023-07-29T12:58:33;99520.56;;;26.04;52.64
75063;BME280;63981;51.052;13.754;2023-07-29T13:00:59;99523.88;;;26.06;50.77
75063;BME280;63981;51.052;13.754;2023-07-29T13:03:25;99513.44;;;26.35;52.43
75063;BME280;63981;51.052;13.754;2023-07-29T13:05:53;99504.56;;;26.53;51.47